sensor_id;sensor_type;location;lat;lon;timestamp;temperature;humidity
11107;DHT22;5607;48.302;14.294;2023-04-25T00:01:52;10.40;1.00
11107;DHT22;5607;48.302;14.294;2023-04-25T00:04:38;10.40;1.00
11107;DHT22;5607;48.302;14.294;2023-04-25T00:07:25;10.40;1.00
11107;DHT22;5607;48.302;14.294;2023-04-25T00:10:11;10.40;1.00
11107;DHT22;5607;48.302;14.294;2023-04-25T00:12:57;10.40;1.00
11107;DHT22;5607;48.302;14.294;2023-04-25T00:15:44;10.50;1.00
11107;DHT22;5607;48.302;14.294;2023-04-25T00:18:32;10.50;1.00
11107;DHT22;5607;48.302;14.294;2023-04-25T00:21:23;10.60;1.00
11107;DHT22;5607;48.302;14.294;2023-04-25T00:24:10;10.50;1.00
11107;DHT22;5607;48.302;14.294;2023-04-25T00:26:56;10.50;1.00
11107;DHT22;5607;48.302;14.294;2023-04-25T00:29:42;10.40;1.00
11107;DHT22;5607;48.302;14.294;2023-04-25T00:32:29;10.40;1.00
11107;DHT22;5607;48.302;14.294;2023-04-25T00:35:15;10.40;1.00
11107;DHT22;5607;48.302;14.294;2023-04-25T00:38:03;10.40;1.00
11107;DHT22;5607;48.302;14.294;2023-04-25T00:40:50;10.30;1.00
11107;DHT22;5607;48.302;14.294;2023-04-25T00:43:36;10.30;1.00
11107;DHT22;5607;48.302;14.294;2023-04-25T00:46:23;10.20;1.00
11107;DHT22;5607;48.302;14.294;2023-04-25T00:49:09;10.20;1.00
11107;DHT22;5607;48.302;14.294;2023-04-25T00:52:02;10.20;1.00
11107;DHT22;5607;48.302;14.294;2023-04-25T00:54:48;10.20;1.00
11107;DHT22;5607;48.302;14.294;2023-04-25T00:57:35;10.10;1.00
11107;DHT22;5607;48.302;14.294;2023-04-25T01:00:21;10.00;1.00
11107;DHT22;5607;48.302;14.294;2023-04-25T01:03:07;10.10;1.00
11107;DHT22;5607;48.302;14.294;2023-04-25T01:05:54;10.10;1.00
11107;DHT22;5607;48.302;14.294;2023-04-25T01:08:40;10.10;1.00
11107;DHT22;5607;48.302;14.294;2023-04-25T01:11:26;10.10;1.00
11107;DHT22;5607;48.302;14.294;2023-04-25T01:14:13;10.10;1.00
11107;DHT22;5607;48.302;14.294;2023-04-25T01:16:59;10.00;1.00
11107;DHT22;5607;48.302;14.294;2023-04-25T01:19:46;9.90;1.00
11107;DHT22;5607;48.302;14.294;2023-04-25T01:22:34;9.70;1.00
11107;DHT22;5607;48.302;14.294;2023-04-25T01:25:21;9.70;1.00
11107;DHT22;5607;48.302;14.294;2023-04-25T01:28:08;9.80;1.00
11107;DHT22;5607;48.302;14.294;2023-04-25T01:30:54;9.70;1.00
11107;DHT22;5607;48.302;14.294;2023-04-25T01:33:42;9.60;1.00
11107;DHT22;5607;48.302;14.294;2023-04-25T01:36:28;9.60;1.00
11107;DHT22;5607;48.302;14.294;2023-04-25T01:39:15;9.50;1.00
11107;DHT22;5607;48.302;14.294;2023-04-25T01:42:01;9.50;1.00
11107;DHT22;5607;48.302;14.294;2023-04-25T01:44:47;9.30;1.00
11107;DHT22;5607;48.302;14.294;2023-04-25T01:47:34;9.20;1.00
11107;DHT22;5607;48.302;14.294;2023-04-25T01:50:23;9.20;1.00
11107;DHT22;5607;48.302;14.294;2023-04-25T01:53:09;9.20;1.00
11107;DHT22;5607;48.302;14.294;2023-04-25T01:55:57;9.40;1.00
11107;DHT22;5607;48.302;14.294;2023-04-25T01:58:43;9.60;1.00
11107;DHT22;5607;48.302;14.294;2023-04-25T02:01:29;9.70;1.00
11107;DHT22;5607;48.302;14.294;2023-04-25T02:04:15;9.70;1.00
11107;DHT22;5607;48.302;14.294;2023-04-25T02:07:02;9.80;1.00
11107;DHT22;5607;48.302;14.294;2023-04-25T02:09:49;9.90;1.00
11107;DHT22;5607;48.302;14.294;2023-04-25T02:12:35;10.00;1.00
11107;DHT22;5607;48.302;14.294;2023-04-25T02:15:22;10.00;1.00
11107;DHT22;5607;48.302;14.294;2023-04-25T02:18:08;9.90;1.00
11107;DHT22;5607;48.302;14.294;2023-04-25T02:20:59;9.90;1.00
11107;DHT22;5607;48.302;14.294;2023-04-25T02:23:45;9.90;1.00
11107;DHT22;5607;48.302;14.294;2023-04-25T02:26:34;9.90;1.00
11107;DHT22;5607;48.302;14.294;2023-04-25T02:29:21;10.00;1.00
11107;DHT22;5607;48.302;14.294;2023-04-25T02:32:07;9.80;1.00
11107;DHT22;5607;48.302;14.294;2023-04-25T02:34:54;9.60;1.00
11107;DHT22;5607;48.302;14.294;2023-04-25T02:37:41;9.50;1.00
11107;DHT22;5607;48.302;14.294;2023-04-25T02:40:27;9.60;1.00
11107;DHT22;5607;48.302;14.294;2023-04-25T02:43:14;9.60;1.00
11107;DHT22;5607;48.302;14.294;2023-04-25T02:46:02;9.70;1.00
11107;DHT22;5607;48.302;14.294;2023-04-25T02:48:48;9.70;1.00
11107;DHT22;5607;48.302;14.294;2023-04-25T02:51:34;9.80;1.00
11107;DHT22;5607;48.302;14.294;2023-04-25T02:54:21;9.80;1.00
11107;DHT22;5607;48.302;14.294;2023-04-25T02:57:07;9.70;1.00
11107;DHT22;5607;48.302;14.294;2023-04-25T02:59:53;9.60;1.00
11107;DHT22;5607;48.302;14.294;2023-04-25T03:02:40;9.60;1.00
11107;DHT22;5607;48.302;14.294;2023-04-25T03:05:26;9.50;1.00
11107;DHT22;5607;48.302;14.294;2023-04-25T03:08:16;9.40;1.00
11107;DHT22;5607;48.302;14.294;2023-04-25T03:11:03;9.20;1.00
11107;DHT22;5607;48.302;14.294;2023-04-25T03:13:49;9.20;1.00
11107;DHT22;5607;48.302;14.294;2023-04-25T03:16:36;9.00;1.00
11107;DHT22;5607;48.302;14.294;2023-04-25T03:19:22;9.00;1.00
11107;DHT22;5607;48.302;14.294;2023-04-25T03:22:08;9.20;1.00
11107;DHT22;5607;48.302;14.294;2023-04-25T03:24:54;9.20;1.00
11107;DHT22;5607;48.302;14.294;2023-04-25T03:27:41;9.10;1.00
11107;DHT22;5607;48.302;14.294;2023-04-25T03:30:27;9.00;1.00
11107;DHT22;5607;48.302;14.294;2023-04-25T03:33:13;8.90;1.00
11107;DHT22;5607;48.302;14.294;2023-04-25T03:35:59;8.70;1.00
11107;DHT22;5607;48.302;14.294;2023-04-25T03:38:46;8.60;1.00
11107;DHT22;5607;48.302;14.294;2023-04-25T03:41:34;8.60;1.00
11107;DHT22;5607;48.302;14.294;2023-04-25T03:44:20;8.70;1.00
11107;DHT22;5607;48.302;14.294;2023-04-25T03:47:06;8.80;1.00
11107;DHT22;5607;48.302;14.294;2023-04-25T03:49:53;8.80;1.00
11107;DHT22;5607;48.302;14.294;2023-04-25T03:52:39;8.80;1.00
11107;DHT22;5607;48.302;14.294;2023-04-25T03:55:26;8.80;1.00
11107;DHT22;5607;48.302;14.294;2023-04-25T03:58:12;9.00;1.00
11107;DHT22;5607;48.302;14.294;2023-04-25T04:00:59;8.80;1.00
11107;DHT22;5607;48.302;14.294;2023-04-25T04:03:45;8.80;1.00
11107;DHT22;5607;48.302;14.294;2023-04-25T04:06:32;8.80;1.00
11107;DHT22;5607;48.302;14.294;2023-04-25T04:09:19;8.80;1.00
11107;DHT22;5607;48.302;14.294;2023-04-25T04:12:06;8.70;1.00
11107;DHT22;5607;48.302;14.294;2023-04-25T04:14:55;8.70;1.00
11107;DHT22;5607;48.302;14.294;2023-04-25T04:17:41;8.70;1.00
11107;DHT22;5607;48.302;14.294;2023-04-25T04:20:27;8.60;1.00
11107;DHT22;5607;48.302;14.294;2023-04-25T04:23:14;8.70;1.00
11107;DHT22;5607;48.302;14.294;2023-04-25T04:26:00;8.80;1.00
11107;DHT22;5607;48.302;14.294;2023-04-25T04:28:47;8.90;1.00
11107;DHT22;5607;48.302;14.294;2023-04-25T04:31:33;9.00;1.00
11107;DHT22;5607;48.302;14.294;2023-04-25T04:34:19;9.10;1.00
11107;DHT22;5607;48.302;14.294;2023-04-25T04:37:05;9.30;1.00
11107;DHT22;5607;48.302;14.294;2023-04-25T04:39:52;9.40;1.00
11107;DHT22;5607;48.302;14.294;2023-04-25T04:42:39;9.40;1.00
11107;DHT22;5607;48.302;14.294;2023-04-25T04:45:25;9.40;1.00
11107;DHT22;5607;48.302;14.294;2023-04-25T04:48:13;9.50;1.00
11107;DHT22;5607;48.302;14.294;2023-04-25T04:51:00;9.60;1.00
11107;DHT22;5607;48.302;14.294;2023-04-25T04:53:46;9.90;1.00
11107;DHT22;5607;48.302;14.294;2023-04-25T04:56:32;10.00;1.00
11107;DHT22;5607;48.302;14.294;2023-04-25T04:59:19;10.10;1.00
11107;DHT22;5607;48.302;14.294;2023-04-25T05:02:05;10.10;1.00
11107;DHT22;5607;48.302;14.294;2023-04-25T05:04:51;10.10;1.00
11107;DHT22;5607;48.302;14.294;2023-04-25T05:07:37;9.90;1.00
11107;DHT22;5607;48.302;14.294;2023-04-25T05:10:24;9.90;1.00
11107;DHT22;5607;48.302;14.294;2023-04-25T05:13:10;10.00;1.00
11107;DHT22;5607;48.302;14.294;2023-04-25T05:15:57;10.00;1.00
11107;DHT22;5607;48.302;14.294;2023-04-25T05:18:45;10.20;1.00
11107;DHT22;5607;48.302;14.294;2023-04-25T05:21:32;10.30;1.00
11107;DHT22;5607;48.302;14.294;2023-04-25T05:24:18;10.40;1.00
11107;DHT22;5607;48.302;14.294;2023-04-25T05:27:04;10.40;1.00
11107;DHT22;5607;48.302;14.294;2023-04-25T05:29:51;10.50;1.00
11107;DHT22;5607;48.302;14.294;2023-04-25T05:32:38;10.50;1.00
11107;DHT22;5607;48.302;14.294;2023-04-25T05:35:24;10.60;1.00
11107;DHT22;5607;48.302;14.294;2023-04-25T05:38:11;10.80;1.00
11107;DHT22;5607;48.302;14.294;2023-04-25T05:40:57;10.90;1.00
11107;DHT22;5607;48.302;14.294;2023-04-25T05:43:43;11.10;1.00
11107;DHT22;5607;48.302;14.294;2023-04-25T05:46:33;11.20;99.90
11107;DHT22;5607;48.302;14.294;2023-04-25T05:49:19;11.00;99.90
11107;DHT22;5607;48.302;14.294;2023-04-25T05:52:06;11.00;99.90
11107;DHT22;5607;48.302;14.294;2023-04-25T05:54:52;10.90;1.40
11107;DHT22;5607;48.302;14.294;2023-04-25T05:57:39;10.90;99.90
11107;DHT22;5607;48.302;14.294;2023-04-25T06:00:27;10.90;99.90
11107;DHT22;5607;48.302;14.294;2023-04-25T06:03:13;10.90;99.90
11107;DHT22;5607;48.302;14.294;2023-04-25T06:06:03;11.10;99.90
11107;DHT22;5607;48.302;14.294;2023-04-25T06:08:49;11.30;99.90
11107;DHT22;5607;48.302;14.294;2023-04-25T06:11:35;11.40;99.90
11107;DHT22;5607;48.302;14.294;2023-04-25T06:14:21;11.30;99.90
11107;DHT22;5607;48.302;14.294;2023-04-25T06:17:07;11.30;99.90
11107;DHT22;5607;48.302;14.294;2023-04-25T06:19:54;11.20;99.90
11107;DHT22;5607;48.302;14.294;2023-04-25T06:22:40;11.10;99.90
11107;DHT22;5607;48.302;14.294;2023-04-25T06:25:27;11.10;99.90
11107;DHT22;5607;48.302;14.294;2023-04-25T06:28:14;11.00;99.90
11107;DHT22;5607;48.302;14.294;2023-04-25T06:31:00;11.00;99.90
11107;DHT22;5607;48.302;14.294;2023-04-25T06:33:46;11.20;99.90
11107;DHT22;5607;48.302;14.294;2023-04-25T06:36:34;11.50;99.90
11107;DHT22;5607;48.302;14.294;2023-04-25T06:39:20;11.70;99.90
11107;DHT22;5607;48.302;14.294;2023-04-25T06:42:09;11.60;99.90
11107;DHT22;5607;48.302;14.294;2023-04-25T06:44:55;11.70;99.90
11107;DHT22;5607;48.302;14.294;2023-04-25T06:47:42;11.80;99.90
11107;DHT22;5607;48.302;14.294;2023-04-25T06:50:28;11.90;99.90
11107;DHT22;5607;48.302;14.294;2023-04-25T06:53:15;12.00;99.90
11107;DHT22;5607;48.302;14.294;2023-04-25T06:56:01;12.20;99.90
11107;DHT22;5607;48.302;14.294;2023-04-25T06:58:49;12.30;99.90
11107;DHT22;5607;48.302;14.294;2023-04-25T07:01:35;12.30;99.90
11107;DHT22;5607;48.302;14.294;2023-04-25T07:04:21;12.20;99.90
11107;DHT22;5607;48.302;14.294;2023-04-25T07:07:08;12.40;99.90
11107;DHT22;5607;48.302;14.294;2023-04-25T07:09:55;12.10;99.90
11107;DHT22;5607;48.302;14.294;2023-04-25T07:12:41;12.20;99.90
11107;DHT22;5607;48.302;14.294;2023-04-25T07:15:27;12.40;99.90
11107;DHT22;5607;48.302;14.294;2023-04-25T07:18:13;12.60;99.90
11107;DHT22;5607;48.302;14.294;2023-04-25T07:21:00;12.60;99.90
11107;DHT22;5607;48.302;14.294;2023-04-25T07:23:46;12.60;99.90
11107;DHT22;5607;48.302;14.294;2023-04-25T07:26:32;12.80;99.90
11107;DHT22;5607;48.302;14.294;2023-04-25T07:29:19;13.00;99.90
11107;DHT22;5607;48.302;14.294;2023-04-25T07:32:05;13.20;99.90
11107;DHT22;5607;48.302;14.294;2023-04-25T07:34:52;13.40;99.90
11107;DHT22;5607;48.302;14.294;2023-04-25T07:37:38;13.70;99.90
11107;DHT22;5607;48.302;14.294;2023-04-25T07:43:30;13.40;99.90
11107;DHT22;5607;48.302;14.294;2023-04-25T07:46:16;13.20;99.90
11107;DHT22;5607;48.302;14.294;2023-04-25T07:49:02;13.00;99.90
11107;DHT22;5607;48.302;14.294;2023-04-25T07:51:49;13.10;99.90
11107;DHT22;5607;48.302;14.294;2023-04-25T07:54:35;13.30;99.90
11107;DHT22;5607;48.302;14.294;2023-04-25T07:57:22;13.50;99.90
11107;DHT22;5607;48.302;14.294;2023-04-25T08:00:08;13.30;99.90
11107;DHT22;5607;48.302;14.294;2023-04-25T08:02:55;13.60;99.90
11107;DHT22;5607;48.302;14.294;2023-04-25T08:05:42;14.00;99.90
11107;DHT22;5607;48.302;14.294;2023-04-25T08:08:28;14.50;99.90
11107;DHT22;5607;48.302;14.294;2023-04-25T08:11:14;14.50;99.90
11107;DHT22;5607;48.302;14.294;2023-04-25T08:14:01;14.40;99.90
11107;DHT22;5607;48.302;14.294;2023-04-25T08:16:48;13.90;99.90
11107;DHT22;5607;48.302;14.294;2023-04-25T08:19:34;14.10;99.90
11107;DHT22;5607;48.302;14.294;2023-04-25T08:22:21;14.50;99.90
11107;DHT22;5607;48.302;14.294;2023-04-25T08:25:08;14.30;99.90
11107;DHT22;5607;48.302;14.294;2023-04-25T08:27:54;14.10;99.90
11107;DHT22;5607;48.302;14.294;2023-04-25T08:30:42;13.70;99.90
11107;DHT22;5607;48.302;14.294;2023-04-25T08:33:28;13.50;99.90
11107;DHT22;5607;48.302;14.294;2023-04-25T08:36:14;13.40;99.90
11107;DHT22;5607;48.302;14.294;2023-04-25T08:39:01;13.60;99.90
11107;DHT22;5607;48.302;14.294;2023-04-25T08:41:47;13.60;99.90
11107;DHT22;5607;48.302;14.294;2023-04-25T08:44:34;13.90;99.90
11107;DHT22;5607;48.302;14.294;2023-04-25T08:47:21;13.70;99.90
11107;DHT22;5607;48.302;14.294;2023-04-25T08:50:08;13.60;99.90
11107;DHT22;5607;48.302;14.294;2023-04-25T08:52:54;14.00;99.90
11107;DHT22;5607;48.302;14.294;2023-04-25T08:55:43;13.80;99.90
11107;DHT22;5607;48.302;14.294;2023-04-25T08:58:31;13.50;99.90
11107;DHT22;5607;48.302;14.294;2023-04-25T09:01:18;13.40;99.90
11107;DHT22;5607;48.302;14.294;2023-04-25T09:04:04;13.50;99.90
11107;DHT22;5607;48.302;14.294;2023-04-25T09:06:50;13.50;99.90
11107;DHT22;5607;48.302;14.294;2023-04-25T09:09:37;13.20;99.90
11107;DHT22;5607;48.302;14.294;2023-04-25T09:12:23;13.30;99.90
11107;DHT22;5607;48.302;14.294;2023-04-25T09:15:10;13.40;99.90
11107;DHT22;5607;48.302;14.294;2023-04-25T09:17:57;13.50;99.90
11107;DHT22;5607;48.302;14.294;2023-04-25T09:20:43;13.30;99.90
11107;DHT22;5607;48.302;14.294;2023-04-25T09:23:30;13.20;99.90
11107;DHT22;5607;48.302;14.294;2023-04-25T09:26:18;13.20;99.90
11107;DHT22;5607;48.302;14.294;2023-04-25T09:29:05;13.50;99.90
11107;DHT22;5607;48.302;14.294;2023-04-25T09:31:52;13.80;99.90
11107;DHT22;5607;48.302;14.294;2023-04-25T09:34:39;13.70;99.90
11107;DHT22;5607;48.302;14.294;2023-04-25T09:37:28;14.00;99.90
11107;DHT22;5607;48.302;14.294;2023-04-25T09:40:14;14.30;99.90
11107;DHT22;5607;48.302;14.294;2023-04-25T09:43:00;14.20;99.90
11107;DHT22;5607;48.302;14.294;2023-04-25T09:45:47;14.30;99.90
11107;DHT22;5607;48.302;14.294;2023-04-25T09:48:33;14.70;99.90
11107;DHT22;5607;48.302;14.294;2023-04-25T09:51:19;14.80;99.90
11107;DHT22;5607;48.302;14.294;2023-04-25T09:54:06;14.80;99.90
11107;DHT22;5607;48.302;14.294;2023-04-25T09:56:52;14.50;99.90
11107;DHT22;5607;48.302;14.294;2023-04-25T09:59:42;14.40;99.90
11107;DHT22;5607;48.302;14.294;2023-04-25T10:02:29;14.80;99.90
11107;DHT22;5607;48.302;14.294;2023-04-25T10:05:16;15.00;99.90
11107;DHT22;5607;48.302;14.294;2023-04-25T10:08:03;15.10;99.90
11107;DHT22;5607;48.302;14.294;2023-04-25T10:10:51;14.60;99.90
11107;DHT22;5607;48.302;14.294;2023-04-25T10:13:37;14.80;99.90
11107;DHT22;5607;48.302;14.294;2023-04-25T10:16:23;14.90;99.90
11107;DHT22;5607;48.302;14.294;2023-04-25T10:19:10;14.50;99.90
11107;DHT22;5607;48.302;14.294;2023-04-25T10:25:02;14.30;99.90
11107;DHT22;5607;48.302;14.294;2023-04-25T10:27:52;14.30;99.90
11107;DHT22;5607;48.302;14.294;2023-04-25T10:30:53;14.30;99.90
11107;DHT22;5607;48.302;14.294;2023-04-25T10:33:42;14.10;99.90
11107;DHT22;5607;48.302;14.294;2023-04-25T10:36:30;14.10;99.90
11107;DHT22;5607;48.302;14.294;2023-04-25T10:39:24;13.90;99.90
11107;DHT22;5607;48.302;14.294;2023-04-25T10:42:10;13.70;99.90
11107;DHT22;5607;48.302;14.294;2023-04-25T10:45:00;13.70;99.90
11107;DHT22;5607;48.302;14.294;2023-04-25T10:47:47;13.90;99.90
11107;DHT22;5607;48.302;14.294;2023-04-25T10:50:37;14.30;99.90
11107;DHT22;5607;48.302;14.294;2023-04-25T10:53:24;14.50;99.90
11107;DHT22;5607;48.302;14.294;2023-04-25T10:56:17;14.70;99.90
11107;DHT22;5607;48.302;14.294;2023-04-25T10:59:17;15.10;99.90
11107;DHT22;5607;48.302;14.294;2023-04-25T11:02:11;15.00;99.90
11107;DHT22;5607;48.302;14.294;2023-04-25T11:04:59;15.00;99.90
11107;DHT22;5607;48.302;14.294;2023-04-25T11:07:52;14.70;99.90
11107;DHT22;5607;48.302;14.294;2023-04-25T11:10:40;14.70;99.90
11107;DHT22;5607;48.302;14.294;2023-04-25T11:13:29;14.50;99.90
11107;DHT22;5607;48.302;14.294;2023-04-25T11:16:17;14.00;99.90
11107;DHT22;5607;48.302;14.294;2023-04-25T11:19:03;14.00;99.90
11107;DHT22;5607;48.302;14.294;2023-04-25T11:21:50;14.00;99.90
11107;DHT22;5607;48.302;14.294;2023-04-25T11:24:36;13.90;99.90
11107;DHT22;5607;48.302;14.294;2023-04-25T11:27:22;13.80;99.90
11107;DHT22;5607;48.302;14.294;2023-04-25T11:30:14;13.40;99.90
11107;DHT22;5607;48.302;14.294;2023-04-25T11:33:01;13.20;99.90
11107;DHT22;5607;48.302;14.294;2023-04-25T11:35:49;13.50;99.90
11107;DHT22;5607;48.302;14.294;2023-04-25T11:38:35;13.50;99.90
11107;DHT22;5607;48.302;14.294;2023-04-25T11:41:22;13.60;99.90
11107;DHT22;5607;48.302;14.294;2023-04-25T11:44:08;13.50;99.90
11107;DHT22;5607;48.302;14.294;2023-04-25T11:46:54;13.70;99.90
11107;DHT22;5607;48.302;14.294;2023-04-25T11:49:41;14.00;99.90
11107;DHT22;5607;48.302;14.294;2023-04-25T11:52:37;14.20;99.90
11107;DHT22;5607;48.302;14.294;2023-04-25T11:55:24;14.40;99.90
11107;DHT22;5607;48.302;14.294;2023-04-25T11:58:10;14.60;99.90
11107;DHT22;5607;48.302;14.294;2023-04-25T12:00:56;14.30;99.90
11107;DHT22;5607;48.302;14.294;2023-04-25T12:03:47;13.70;99.90
11107;DHT22;5607;48.302;14.294;2023-04-25T12:06:33;13.60;99.90
11107;DHT22;5607;48.302;14.294;2023-04-25T12:09:30;13.90;99.90
11107;DHT22;5607;48.302;14.294;2023-04-25T12:12:16;14.10;99.90
11107;DHT22;5607;48.302;14.294;2023-04-25T12:15:10;14.40;99.90
11107;DHT22;5607;48.302;14.294;2023-04-25T12:17:56;14.80;99.90
11107;DHT22;5607;48.302;14.294;2023-04-25T12:20:43;15.20;99.90
11107;DHT22;5607;48.302;14.294;2023-04-25T12:23:29;15.50;99.90
11107;DHT22;5607;48.302;14.294;2023-04-25T12:26:17;15.70;99.90
11107;DHT22;5607;48.302;14.294;2023-04-25T12:29:15;15.80;99.90
11107;DHT22;5607;48.302;14.294;2023-04-25T12:32:02;16.20;99.90
11107;DHT22;5607;48.302;14.294;2023-04-25T12:34:48;16.60;99.90
11107;DHT22;5607;48.302;14.294;2023-04-25T12:37:35;16.60;99.90
11107;DHT22;5607;48.302;14.294;2023-04-25T12:40:21;16.20;99.90
11107;DHT22;5607;48.302;14.294;2023-04-25T12:43:07;16.20;99.90
11107;DHT22;5607;48.302;14.294;2023-04-25T12:45:54;14.70;99.90
11107;DHT22;5607;48.302;14.294;2023-04-25T12:48:41;12.90;99.90
11107;DHT22;5607;48.302;14.294;2023-04-25T12:51:27;11.60;1.40
11107;DHT22;5607;48.302;14.294;2023-04-25T12:54:14;10.50;1.00
11107;DHT22;5607;48.302;14.294;2023-04-25T12:57:00;9.90;1.00
11107;DHT22;5607;48.302;14.294;2023-04-25T12:59:48;9.40;89.50
11107;DHT22;5607;48.302;14.294;2023-04-25T13:02:34;9.20;99.90
11107;DHT22;5607;48.302;14.294;2023-04-25T13:05:21;9.10;99.90
11107;DHT22;5607;48.302;14.294;2023-04-25T13:11:13;9.70;68.40
11107;DHT22;5607;48.302;14.294;2023-04-25T13:14:00;10.20;65.60
11107;DHT22;5607;48.302;14.294;2023-04-25T13:16:47;10.80;6.40
11107;DHT22;5607;48.302;14.294;2023-04-25T13:19:34;11.50;1.00
11107;DHT22;5607;48.302;14.294;2023-04-25T13:22:22;12.10;1.00
11107;DHT22;5607;48.302;14.294;2023-04-25T13:25:09;12.70;1.00
11107;DHT22;5607;48.302;14.294;2023-04-25T13:27:55;12.90;99.90
11107;DHT22;5607;48.302;14.294;2023-04-25T13:30:41;13.30;1.00
11107;DHT22;5607;48.302;14.294;2023-04-25T13:33:28;14.00;99.90
11107;DHT22;5607;48.302;14.294;2023-04-25T13:36:14;14.50;99.90
11107;DHT22;5607;48.302;14.294;2023-04-25T13:39:00;15.00;99.90
11107;DHT22;5607;48.302;14.294;2023-04-25T13:41:50;15.40;99.90
11107;DHT22;5607;48.302;14.294;2023-04-25T13:44:37;15.80;99.90
11107;DHT22;5607;48.302;14.294;2023-04-25T13:47:23;16.50;99.90
11107;DHT22;5607;48.302;14.294;2023-04-25T13:50:10;17.00;99.90
11107;DHT22;5607;48.302;14.294;2023-04-25T13:52:56;16.30;99.90
11107;DHT22;5607;48.302;14.294;2023-04-25T13:55:42;17.10;99.90
11107;DHT22;5607;48.302;14.294;2023-04-25T13:58:29;17.70;99.90
11107;DHT22;5607;48.302;14.294;2023-04-25T14:01:15;18.20;99.90
11107;DHT22;5607;48.302;14.294;2023-04-25T14:04:02;18.80;99.90
11107;DHT22;5607;48.302;14.294;2023-04-25T14:06:49;20.40;99.90
11107;DHT22;5607;48.302;14.294;2023-04-25T14:09:36;18.50;99.90
11107;DHT22;5607;48.302;14.294;2023-04-25T14:12:23;19.00;99.90
11107;DHT22;5607;48.302;14.294;2023-04-25T14:15:09;19.80;99.90
11107;DHT22;5607;48.302;14.294;2023-04-25T14:17:56;22.00;99.90
11107;DHT22;5607;48.302;14.294;2023-04-25T14:20:43;24.80;99.90
11107;DHT22;5607;48.302;14.294;2023-04-25T14:23:29;26.50;99.90
11107;DHT22;5607;48.302;14.294;2023-04-25T14:26:15;29.50;99.90
11107;DHT22;5607;48.302;14.294;2023-04-25T14:29:03;28.40;99.90
11107;DHT22;5607;48.302;14.294;2023-04-25T14:31:49;27.00;99.90
11107;DHT22;5607;48.302;14.294;2023-04-25T14:34:36;26.60;99.90
11107;DHT22;5607;48.302;14.294;2023-04-25T14:37:22;25.60;99.90
11107;DHT22;5607;48.302;14.294;2023-04-25T14:40:08;25.70;99.90
11107;DHT22;5607;48.302;14.294;2023-04-25T14:42:56;27.60;99.90
11107;DHT22;5607;48.302;14.294;2023-04-25T14:45:45;29.30;99.90
11107;DHT22;5607;48.302;14.294;2023-04-25T14:48:31;29.20;99.90
11107;DHT22;5607;48.302;14.294;2023-04-25T14:51:17;28.80;99.90
11107;DHT22;5607;48.302;14.294;2023-04-25T14:54:04;25.00;99.90
11107;DHT22;5607;48.302;14.294;2023-04-25T14:56:50;22.70;99.90
11107;DHT22;5607;48.302;14.294;2023-04-25T14:59:37;24.00;99.90
11107;DHT22;5607;48.302;14.294;2023-04-25T15:02:23;25.80;99.90
11107;DHT22;5607;48.302;14.294;2023-04-25T15:05:10;24.20;99.90
11107;DHT22;5607;48.302;14.294;2023-04-25T15:07:56;24.50;99.90
11107;DHT22;5607;48.302;14.294;2023-04-25T15:10:43;26.20;99.90
11107;DHT22;5607;48.302;14.294;2023-04-25T15:13:30;27.90;99.90
11107;DHT22;5607;48.302;14.294;2023-04-25T15:16:16;29.20;99.90
11107;DHT22;5607;48.302;14.294;2023-04-25T15:19:02;28.50;99.90
11107;DHT22;5607;48.302;14.294;2023-04-25T15:21:49;28.30;99.90
11107;DHT22;5607;48.302;14.294;2023-04-25T15:24:36;27.90;99.90
11107;DHT22;5607;48.302;14.294;2023-04-25T15:27:22;23.60;99.90
11107;DHT22;5607;48.302;14.294;2023-04-25T15:30:09;20.40;99.90
11107;DHT22;5607;48.302;14.294;2023-04-25T15:33:01;18.80;99.90
11107;DHT22;5607;48.302;14.294;2023-04-25T15:35:47;18.00;99.90
11107;DHT22;5607;48.302;14.294;2023-04-25T15:38:33;17.10;99.90
11107;DHT22;5607;48.302;14.294;2023-04-25T15:41:19;16.40;99.90
11107;DHT22;5607;48.302;14.294;2023-04-25T15:44:06;16.20;99.90
11107;DHT22;5607;48.302;14.294;2023-04-25T15:46:53;15.90;99.90
11107;DHT22;5607;48.302;14.294;2023-04-25T15:49:39;16.10;99.90
11107;DHT22;5607;48.302;14.294;2023-04-25T15:52:26;15.60;99.90
11107;DHT22;5607;48.302;14.294;2023-04-25T15:55:13;15.20;99.90
11107;DHT22;5607;48.302;14.294;2023-04-25T15:57:59;14.50;99.90
11107;DHT22;5607;48.302;14.294;2023-04-25T16:00:46;13.90;99.90
11107;DHT22;5607;48.302;14.294;2023-04-25T16:03:33;13.50;99.90
11107;DHT22;5607;48.302;14.294;2023-04-25T16:06:21;13.00;99.90
11107;DHT22;5607;48.302;14.294;2023-04-25T16:09:07;12.00;1.00
11107;DHT22;5607;48.302;14.294;2023-04-25T16:11:53;10.60;1.00
11107;DHT22;5607;48.302;14.294;2023-04-25T16:14:41;9.20;87.60
11107;DHT22;5607;48.302;14.294;2023-04-25T16:17:27;9.00;99.90
11107;DHT22;5607;48.302;14.294;2023-04-25T16:20:15;9.10;99.90
11107;DHT22;5607;48.302;14.294;2023-04-25T16:23:01;9.40;99.90
11107;DHT22;5607;48.302;14.294;2023-04-25T16:25:47;9.70;99.90
11107;DHT22;5607;48.302;14.294;2023-04-25T16:28:35;9.90;99.90
11107;DHT22;5607;48.302;14.294;2023-04-25T16:31:21;10.20;86.90
11107;DHT22;5607;48.302;14.294;2023-04-25T16:34:08;10.40;10.40
11107;DHT22;5607;48.302;14.294;2023-04-25T16:36:54;10.60;1.00
11107;DHT22;5607;48.302;14.294;2023-04-25T16:39:41;10.70;1.00
11107;DHT22;5607;48.302;14.294;2023-04-25T16:42:28;10.90;1.00
11107;DHT22;5607;48.302;14.294;2023-04-25T16:45:14;10.90;1.00
11107;DHT22;5607;48.302;14.294;2023-04-25T16:48:03;11.20;1.00
11107;DHT22;5607;48.302;14.294;2023-04-25T16:50:50;11.30;1.00
11107;DHT22;5607;48.302;14.294;2023-04-25T16:53:37;11.50;1.00
11107;DHT22;5607;48.302;14.294;2023-04-25T16:56:23;11.60;1.00
11107;DHT22;5607;48.302;14.294;2023-04-25T16:59:10;11.60;1.00
11107;DHT22;5607;48.302;14.294;2023-04-25T17:01:57;11.50;1.00
11107;DHT22;5607;48.302;14.294;2023-04-25T17:04:43;11.60;1.00
11107;DHT22;5607;48.302;14.294;2023-04-25T17:07:30;11.60;1.00
11107;DHT22;5607;48.302;14.294;2023-04-25T17:10:17;11.50;1.00
11107;DHT22;5607;48.302;14.294;2023-04-25T17:13:06;11.40;1.00
11107;DHT22;5607;48.302;14.294;2023-04-25T17:15:53;11.30;1.00
11107;DHT22;5607;48.302;14.294;2023-04-25T17:18:39;11.20;1.00
11107;DHT22;5607;48.302;14.294;2023-04-25T17:21:26;11.20;1.00
11107;DHT22;5607;48.302;14.294;2023-04-25T17:24:13;11.20;1.00
11107;DHT22;5607;48.302;14.294;2023-04-25T17:27:00;11.10;1.00
11107;DHT22;5607;48.302;14.294;2023-04-25T17:29:47;11.00;1.00
11107;DHT22;5607;48.302;14.294;2023-04-25T17:32:33;11.00;1.00
11107;DHT22;5607;48.302;14.294;2023-04-25T17:35:20;10.90;1.00
11107;DHT22;5607;48.302;14.294;2023-04-25T17:38:06;10.80;1.00
11107;DHT22;5607;48.302;14.294;2023-04-25T17:40:53;10.60;1.00
11107;DHT22;5607;48.302;14.294;2023-04-25T17:43:40;10.60;1.00
11107;DHT22;5607;48.302;14.294;2023-04-25T17:46:27;10.70;1.00
11107;DHT22;5607;48.302;14.294;2023-04-25T17:49:14;10.70;1.00
11107;DHT22;5607;48.302;14.294;2023-04-25T17:52:00;10.70;1.00
11107;DHT22;5607;48.302;14.294;2023-04-25T17:54:47;10.40;1.00